Santa Fe, NM

07:51 PM MDT am 01. September 2014 (GMT -0600)
Southwest Santa Fe | Change Station
CLOSE
Current Station
Persönliche Wetterstationen
Location: Santa Fe, NM
Höhe: 6634 ft
Wetterstationen in der Umgebung

Höhe 6634 ft 35.64 °N, 106.00 °W | Updated 16 seconds ago

Heiter
Heiter
78.6 °F
gefühlte 78 °F
N
0.0
Wind Wechselnd Wind aus West-Nordwest
Gusts 11.0 mph

Heute
Max. -- | schwach -- °F
--% Regenrisiko
Gestern
Max. -- | schwach -- °F
Precip. -- inch
6:36 AM 7:31 PM
Erstes Viertel, 46% visible
Druck 29.78 inch
Sichtweite 10.0 Meilen
Wolken Heiter
Hitzeindex 78 °F
Taupunkt 38 °F
Feuchtigkeit 23%
Regen 0.00 inch
Schneehöhe 0 in
UV 0 von 12
Pollen 8.90 von 12
Luftqualität Nicht verfügbar..
Flu Activity Nicht verfügbar..
METAR KSAF 020053Z 28011KT 10SM CLR 29/M01 A3008 RMK AO2 SLP083 T02891011

More Conditions Fewer Conditions

Druck 29.78 inch
Sichtweite 10.0 Meilen
Wolken Heiter
Hitzeindex 78 °F
Taupunkt 38 °F
Feuchtigkeit 23%
Regen 0.00 inch
Schneehöhe 0 in
UV 0 von 12
Pollen 8.90 von 12
Luftqualität Nicht verfügbar..
Flu Activity Nicht verfügbar..
METAR KSAF 020053Z 28011KT 10SM CLR 29/M01 A3008 RMK AO2 SLP083 T02891011

More Conditions Fewer Conditions

10-Day Weather Forecast

Almanac

Astronomie

Sep. 01, 2014 Aufgang Untergang
Genaue Zeit 06:36 MDT 19:31 MDT
Bürgerliche Dämmerung 06:10 MDT 19:57 MDT
Nautische Dämmerung 05:39 MDT 20:27 MDT
Astronomische Dämmerung 05:07 MDT 20:59 MDT
Mond 13:10 MDT (9/1) 23:48 MDT (9/1)
Länge des sichtbaren Lichts 13h 46m
Tageslänge
12h 54m
Tomorrow will be 2m 10s shorter.
Erstes Viertel, 46% of the Moon is Illuminated
Heute
Erstes Viertel
Sept 2
Erstes Viertel
Sept 8
Vollmond
Sept 15
Letztes Viertel
Sept 24
Neu

Heutige Rekorde

State Highs State Lows

Community

WunderPhotos

Upload Photos

1,749,476 Fotos hochgeladen!

Nearby

Schneehöhe

Station Depth Höhe
Santa Fe 0 in 11445 ft
Wesner Springs 2 in 11120 ft
Quemazon 0 in 9500 ft
Tolby 0 in 10180 ft
Hopewell 0 in 10000 ft

Erdbebenaktivität

Stadt Distance Mag. Time & Date
Trinidad, Colorado 116 Meilen 2.7 04:20 MDT
2014-08-31
Minimum magnitude displayed is 2.5.

küstennahe Wassertemperaturen

Ort Temperatur
Kein Stationsbericht

Wetterstationen in der Umgebung